createdAt,value
2022-07-29T00:00:49.083Z,101640.25
2022-07-29T00:03:15.308Z,101639.94
2022-07-29T00:05:41.588Z,101643.00
2022-07-29T00:08:12.212Z,101642.34
2022-07-29T00:10:38.806Z,101645.06
2022-07-29T00:13:05.055Z,101645.91
2022-07-29T00:15:31.282Z,101642.50
2022-07-29T00:17:57.519Z,101632.91
2022-07-29T00:20:23.720Z,101635.13
2022-07-29T00:22:49.937Z,101636.31
2022-07-29T00:25:16.139Z,101628.63
2022-07-29T00:27:42.378Z,101625.22
2022-07-29T00:30:08.607Z,101631.91
2022-07-29T00:32:34.831Z,101626.59
2022-07-29T00:35:01.033Z,101628.81
2022-07-29T00:37:27.287Z,101629.13
2022-07-29T00:39:53.490Z,101626.25
2022-07-29T00:42:19.682Z,101623.66
2022-07-29T00:44:45.895Z,101623.66
2022-07-29T00:47:12.193Z,101617.34
2022-07-29T00:49:38.451Z,101624.88
2022-07-29T00:52:04.631Z,101619.56
2022-07-29T00:54:30.887Z,101619.75
2022-07-29T00:56:57.122Z,101620.09
2022-07-29T00:59:23.356Z,101614.13
2022-07-29T01:01:49.606Z,101617.19
2022-07-29T01:04:16.330Z,101609.00
2022-07-29T01:06:43.522Z,101619.41
2022-07-29T01:09:09.712Z,101617.69
2022-07-29T01:11:35.911Z,101610.88
2022-07-29T01:14:02.107Z,101615.63
2022-07-29T01:16:28.399Z,101609.50
2022-07-29T01:18:54.656Z,101611.53
2022-07-29T01:21:20.884Z,101597.53
2022-07-29T01:23:47.079Z,101597.03
2022-07-29T01:26:13.298Z,101590.03
2022-07-29T01:28:41.615Z,101592.06
2022-07-29T01:31:08.946Z,101585.94
2022-07-29T01:33:38.584Z,101580.97
2022-07-29T01:36:04.762Z,101559.81
2022-07-29T01:38:30.990Z,101565.78
2022-07-29T01:40:57.212Z,101542.91
2022-07-29T01:43:23.418Z,101548.03
2022-07-29T01:45:49.615Z,101545.78
2022-07-29T01:48:15.846Z,101550.88
2022-07-29T01:50:42.055Z,101541.16
2022-07-29T01:53:08.318Z,101542.16
2022-07-29T01:55:34.504Z,101528.88
2022-07-29T01:58:00.710Z,101528.00
2022-07-29T02:00:26.970Z,101535.34
2022-07-29T02:02:53.152Z,101533.81
2022-07-29T02:05:19.385Z,101543.00
2022-07-29T02:07:45.612Z,101532.41
2022-07-29T02:10:11.855Z,101534.97
2022-07-29T02:12:38.075Z,101530.72
2022-07-29T02:15:04.268Z,101537.19
2022-07-29T02:17:30.488Z,101541.63
2022-07-29T02:19:56.686Z,101544.00
2022-07-29T02:22:22.892Z,101537.19
2022-07-29T02:24:49.083Z,101538.91
2022-07-29T02:27:15.318Z,101538.03
2022-07-29T02:29:41.507Z,101542.63
2022-07-29T02:32:07.819Z,101541.63
2022-07-29T02:34:34.705Z,101537.34
2022-07-29T02:37:00.976Z,101543.66
2022-07-29T02:39:27.198Z,101535.63
2022-07-29T02:41:53.414Z,101538.53
2022-07-29T02:44:20.088Z,101538.69
2022-07-29T02:46:46.703Z,101536.81
2022-07-29T02:49:13.029Z,101530.50
2022-07-29T02:51:44.162Z,101532.22
2022-07-29T02:54:11.141Z,101533.44
2022-07-29T02:56:37.374Z,101528.13
2022-07-29T02:59:03.601Z,101535.44
2022-07-29T03:01:29.903Z,101535.44
2022-07-29T03:03:56.125Z,101532.88
2022-07-29T03:06:31.071Z,101533.91
2022-07-29T03:09:07.863Z,101540.38
2022-07-29T03:11:46.166Z,101539.38
2022-07-29T03:14:16.655Z,101531.19
2022-07-29T03:16:43.096Z,101522.31
2022-07-29T03:19:09.347Z,101522.66
2022-07-29T03:21:35.529Z,101522.66
2022-07-29T03:24:03.554Z,101518.22
2022-07-29T03:26:33.036Z,101529.97
2022-07-29T03:28:59.216Z,101526.25
2022-07-29T03:31:25.959Z,101518.22
2022-07-29T03:33:52.948Z,101519.22
2022-07-29T03:36:19.221Z,101515.84
2022-07-29T03:38:45.440Z,101516.84
2022-07-29T03:41:11.632Z,101515.97
2022-07-29T03:43:37.859Z,101514.13
2022-07-29T03:46:04.151Z,101508.66
2022-07-29T03:48:30.390Z,101509.69
2022-07-29T03:50:56.567Z,101505.22
2022-07-29T03:53:22.804Z,101507.81
2022-07-29T03:55:49.000Z,101510.69
2022-07-29T03:58:15.209Z,101509.81
2022-07-29T04:00:41.394Z,101507.09
2022-07-29T04:03:10.678Z,101511.88
2022-07-29T04:05:37.956Z,101508.63
2022-07-29T04:08:04.165Z,101514.94
2022-07-29T04:10:31.940Z,101503.34
2022-07-29T04:13:00.251Z,101511.66
2022-07-29T04:15:26.532Z,101518.16
2022-07-29T04:17:57.919Z,101510.00
2022-07-29T04:20:24.192Z,101520.88
2022-07-29T04:22:50.382Z,101528.72
2022-07-29T04:25:16.567Z,101515.63
2022-07-29T04:27:42.780Z,101516.69
2022-07-29T04:30:08.976Z,101523.31
2022-07-29T04:32:35.174Z,101525.56
2022-07-29T04:35:01.360Z,101526.06
2022-07-29T04:37:27.534Z,101529.16
2022-07-29T04:39:53.759Z,101529.69
2022-07-29T04:42:19.939Z,101522.72
2022-07-29T04:44:53.851Z,101531.59
2022-07-29T04:47:20.054Z,101528.53
2022-07-29T04:49:47.409Z,101526.19
2022-07-29T04:52:13.611Z,101528.06
2022-07-29T04:54:39.833Z,101529.63
2022-07-29T04:57:06.020Z,101534.25
2022-07-29T04:59:32.237Z,101524.34
2022-07-29T05:01:58.457Z,101515.31
2022-07-29T05:04:24.710Z,101524.88
2022-07-29T05:06:50.938Z,101520.41
2022-07-29T05:09:17.133Z,101522.97
2022-07-29T05:11:43.343Z,101520.41
2022-07-29T05:14:09.540Z,101517.00
2022-07-29T05:16:35.817Z,101516.31
2022-07-29T05:19:02.026Z,101516.97
2022-07-29T05:21:28.327Z,101512.34
2022-07-29T05:23:54.553Z,101512.50
2022-07-29T05:26:20.771Z,101501.59
2022-07-29T05:28:46.960Z,101498.13
2022-07-29T05:31:13.349Z,101513.34
2022-07-29T05:33:39.643Z,101513.84
2022-07-29T05:36:05.836Z,101507.00
2022-07-29T05:38:32.068Z,101513.63
2022-07-29T05:40:58.265Z,101506.94
2022-07-29T05:43:24.500Z,101512.09
2022-07-29T05:45:50.733Z,101514.47
2022-07-29T05:48:16.961Z,101516.47
2022-07-29T05:50:44.055Z,101511.16
2022-07-29T05:53:20.124Z,101515.91
2022-07-29T05:55:46.842Z,101510.94
2022-07-29T05:58:13.129Z,101519.09
2022-07-29T06:00:39.333Z,101517.16
2022-07-29T06:03:05.528Z,101508.44
2022-07-29T06:05:31.732Z,101516.47
2022-07-29T06:07:57.928Z,101518.16
2022-07-29T06:10:26.308Z,101515.25
2022-07-29T06:12:53.313Z,101506.19
2022-07-29T06:15:19.531Z,101505.16
2022-07-29T06:18:00.853Z,101502.41
2022-07-29T06:20:28.062Z,101504.78
2022-07-29T06:22:54.335Z,101506.31
2022-07-29T06:25:20.600Z,101501.97
2022-07-29T06:27:46.820Z,101504.91
2022-07-29T06:30:13.146Z,101502.09
2022-07-29T06:32:43.044Z,101511.28
2022-07-29T06:35:37.642Z,101503.19
2022-07-29T06:37:55.895Z,101504.31
2022-07-29T06:40:25.885Z,101518.31
2022-07-29T06:42:52.128Z,101508.69
2022-07-29T06:45:18.314Z,101510.53
2022-07-29T06:47:44.518Z,101507.91
2022-07-29T06:50:13.000Z,101512.28
2022-07-29T06:52:39.264Z,101509.91
2022-07-29T06:55:05.465Z,101516.66
2022-07-29T06:57:32.273Z,101518.47
2022-07-29T06:59:58.510Z,101515.19
2022-07-29T07:02:24.743Z,101517.84
2022-07-29T07:04:51.061Z,101523.69
2022-07-29T07:07:17.278Z,101525.31
2022-07-29T07:09:44.229Z,101525.88
2022-07-29T07:12:10.406Z,101522.66
2022-07-29T07:14:36.618Z,101521.13
2022-07-29T07:17:02.882Z,101516.72
2022-07-29T07:19:29.138Z,101513.13
2022-07-29T07:21:55.383Z,101504.78
2022-07-29T07:24:21.902Z,101504.47
2022-07-29T07:26:48.141Z,101511.72
2022-07-29T07:29:14.373Z,101509.88
2022-07-29T07:31:40.644Z,101502.56
2022-07-29T07:34:06.965Z,101499.41
2022-07-29T07:36:33.152Z,101499.59
2022-07-29T07:38:59.427Z,101509.34
2022-07-29T07:41:25.622Z,101500.31
2022-07-29T07:43:51.854Z,101500.16
2022-07-29T07:46:18.785Z,101499.22
2022-07-29T07:48:45.164Z,101492.16
2022-07-29T07:51:11.418Z,101492.91
2022-07-29T07:53:37.619Z,101494.03
2022-07-29T07:56:12.656Z,101504.47
2022-07-29T07:58:39.149Z,101489.31
2022-07-29T08:01:05.445Z,101490.84
2022-07-29T08:03:31.691Z,101488.00
2022-07-29T08:05:58.009Z,101484.88
2022-07-29T08:08:24.173Z,101486.00
2022-07-29T08:10:50.385Z,101479.00
2022-07-29T08:13:16.607Z,101477.31
2022-07-29T08:15:42.833Z,101470.16
2022-07-29T08:18:09.104Z,101473.38
2022-07-29T08:20:35.335Z,101470.19
2022-07-29T08:23:01.571Z,101465.28
2022-07-29T08:25:27.773Z,101465.53
2022-07-29T08:27:53.984Z,101466.34
2022-07-29T08:30:20.208Z,101471.44
2022-07-29T08:32:54.861Z,101464.84
2022-07-29T08:35:21.902Z,101462.28
2022-07-29T08:37:48.155Z,101459.31
2022-07-29T08:40:14.351Z,101458.63
2022-07-29T08:42:40.595Z,101462.84
2022-07-29T08:45:06.823Z,101451.78
2022-07-29T08:47:33.081Z,101454.31
2022-07-29T08:49:59.259Z,101456.38
2022-07-29T08:52:25.475Z,101463.97
2022-07-29T08:54:51.751Z,101459.84
2022-07-29T08:57:18.075Z,101459.22
2022-07-29T08:59:45.848Z,101458.28
2022-07-29T09:02:12.732Z,101452.25
2022-07-29T09:04:38.931Z,101460.28
2022-07-29T09:07:05.125Z,101445.56
2022-07-29T09:09:31.412Z,101450.56
2022-07-29T09:11:58.017Z,101438.41
2022-07-29T09:14:24.375Z,101436.81
2022-07-29T09:16:53.496Z,101436.50
2022-07-29T09:19:20.280Z,101434.44
2022-07-29T09:21:46.507Z,101433.47
2022-07-29T09:24:12.716Z,101433.63
2022-07-29T09:26:38.901Z,101425.44
2022-07-29T09:29:05.086Z,101437.16
2022-07-29T09:31:31.474Z,101435.38
2022-07-29T09:33:57.723Z,101427.94
2022-07-29T09:36:24.049Z,101427.94
2022-07-29T09:38:50.305Z,101423.84
2022-07-29T09:41:16.537Z,101422.06
2022-07-29T09:43:42.722Z,101415.41
2022-07-29T09:46:12.044Z,101414.22
2022-07-29T09:48:38.615Z,101415.22
2022-07-29T09:51:04.946Z,101413.00
2022-07-29T09:53:31.166Z,101408.81
2022-07-29T09:55:57.383Z,101408.00
2022-07-29T09:58:23.581Z,101408.78
2022-07-29T10:00:49.892Z,101417.22
2022-07-29T10:03:16.239Z,101406.72
2022-07-29T10:05:42.469Z,101405.41
2022-07-29T10:08:08.686Z,101409.88
2022-07-29T10:10:34.900Z,101405.53
2022-07-29T10:13:06.949Z,101403.31
2022-07-29T10:15:35.089Z,101401.88
2022-07-29T10:18:01.487Z,101399.88
2022-07-29T10:20:27.705Z,101397.81
2022-07-29T10:22:54.301Z,101388.53
2022-07-29T10:25:20.720Z,101399.38
2022-07-29T10:27:46.966Z,101394.31
2022-07-29T10:30:13.189Z,101400.09
2022-07-29T10:32:39.455Z,101397.59
2022-07-29T10:35:05.683Z,101405.06
2022-07-29T10:37:35.501Z,101412.31
2022-07-29T10:40:02.363Z,101414.34
2022-07-29T10:42:29.749Z,101405.91
2022-07-29T10:45:00.674Z,101411.09
2022-07-29T10:47:26.875Z,101403.75
2022-07-29T10:49:53.063Z,101406.38
2022-07-29T10:52:19.477Z,101401.63
2022-07-29T10:54:45.859Z,101408.00
2022-07-29T10:57:12.167Z,101398.72
2022-07-29T10:59:38.375Z,101394.34
2022-07-29T11:02:35.387Z,101383.47
2022-07-29T11:04:50.910Z,101391.91
2022-07-29T11:07:17.100Z,101387.91
2022-07-29T11:09:43.898Z,101391.38
2022-07-29T11:12:11.318Z,101381.78
2022-07-29T11:14:38.959Z,101384.00
2022-07-29T11:17:07.046Z,101383.31
2022-07-29T11:19:33.361Z,101388.53
2022-07-29T11:21:59.624Z,101386.84
2022-07-29T11:24:28.826Z,101377.84
2022-07-29T11:27:00.198Z,101377.88
2022-07-29T11:29:26.885Z,101373.84
2022-07-29T11:31:53.797Z,101371.69
2022-07-29T11:34:20.744Z,101375.78
2022-07-29T11:36:47.366Z,101368.94
2022-07-29T11:39:14.213Z,101367.75
2022-07-29T11:41:41.433Z,101359.41
2022-07-29T11:44:09.034Z,101356.06
2022-07-29T11:46:35.262Z,101350.66
2022-07-29T11:49:02.242Z,101354.28
2022-07-29T11:51:35.401Z,101349.97
2022-07-29T11:54:05.466Z,101346.50
2022-07-29T11:56:39.116Z,101342.19
2022-07-29T11:59:08.453Z,101351.06
2022-07-29T12:01:34.814Z,101347.34
2022-07-29T12:04:01.106Z,101346.31
2022-07-29T12:06:27.318Z,101333.09
2022-07-29T12:08:53.574Z,101336.84
2022-07-29T12:11:21.155Z,101333.44
2022-07-29T12:13:49.444Z,101345.88
2022-07-29T12:16:16.011Z,101323.56
2022-07-29T12:18:51.197Z,101326.38
2022-07-29T12:21:17.451Z,101325.16
2022-07-29T12:23:43.669Z,101321.38
2022-07-29T12:26:10.843Z,101332.53
2022-07-29T12:28:48.064Z,101320.47
2022-07-29T12:31:14.308Z,101319.28
2022-07-29T12:33:40.576Z,101312.63
2022-07-29T12:36:09.450Z,101311.41
2022-07-29T12:38:37.920Z,101321.25
2022-07-29T12:41:04.378Z,101315.63
2022-07-29T12:43:30.887Z,101299.88
2022-07-29T12:45:57.161Z,101308.63
2022-07-29T12:48:23.389Z,101307.06
2022-07-29T12:50:49.595Z,101309.00
2022-07-29T12:53:15.845Z,101309.72
2022-07-29T12:55:44.055Z,101304.16
2022-07-29T12:58:10.254Z,101300.63
2022-07-29T13:00:36.500Z,101292.94
2022-07-29T13:03:02.780Z,101300.38
2022-07-29T13:05:28.996Z,101301.13
2022-07-29T13:07:57.566Z,101296.75
2022-07-29T13:10:25.311Z,101291.63
2022-07-29T13:12:51.561Z,101286.06
2022-07-29T13:15:17.883Z,101285.25
2022-07-29T13:17:44.170Z,101285.59
2022-07-29T13:20:14.246Z,101286.16
2022-07-29T13:22:40.492Z,101280.22
2022-07-29T13:25:06.850Z,101283.31
2022-07-29T13:27:33.109Z,101273.03
2022-07-29T13:29:59.310Z,101260.84
2022-07-29T13:32:28.673Z,101273.75
2022-07-29T13:34:55.238Z,101267.63
2022-07-29T13:37:21.481Z,101258.47
2022-07-29T13:39:53.222Z,101262.69
2022-07-29T13:42:19.759Z,101266.09
2022-07-29T13:44:46.201Z,101265.03
2022-07-29T13:47:12.399Z,101254.44
2022-07-29T13:49:38.627Z,101258.03
2022-07-29T13:52:04.826Z,101254.59
2022-07-29T13:54:31.027Z,101259.06
2022-07-29T13:56:57.244Z,101254.13
2022-07-29T13:59:23.485Z,101251.66
2022-07-29T14:01:49.692Z,101254.75
2022-07-29T14:04:16.042Z,101257.00
2022-07-29T14:06:42.306Z,101257.06
2022-07-29T14:09:08.495Z,101251.22
2022-07-29T14:11:34.781Z,101250.13
2022-07-29T14:14:01.014Z,101241.53
2022-07-29T14:16:27.342Z,101244.09
2022-07-29T14:18:53.647Z,101237.16
2022-07-29T14:21:19.863Z,101232.69
2022-07-29T14:23:46.040Z,101237.72
2022-07-29T14:26:16.004Z,101237.41
2022-07-29T14:28:48.023Z,101229.81
2022-07-29T14:31:14.249Z,101231.09
2022-07-29T14:33:40.453Z,101239.16
2022-07-29T14:36:06.661Z,101221.00
2022-07-29T14:38:32.859Z,101233.06
2022-07-29T14:40:59.082Z,101219.97
2022-07-29T14:43:25.292Z,101220.78
2022-07-29T14:45:51.521Z,101227.22
2022-07-29T14:48:17.806Z,101223.28
2022-07-29T14:50:44.020Z,101220.75
2022-07-29T14:53:10.225Z,101220.25
2022-07-29T14:55:36.430Z,101208.31
2022-07-29T14:58:09.729Z,101206.66
2022-07-29T15:00:38.332Z,101208.91
2022-07-29T15:03:04.581Z,101208.88
2022-07-29T15:05:30.844Z,101214.44
2022-07-29T15:07:57.114Z,101208.59
2022-07-29T15:10:24.840Z,101214.19
2022-07-29T15:12:51.195Z,101206.09
2022-07-29T15:15:17.414Z,101210.03
2022-07-29T15:17:43.662Z,101209.19
2022-07-29T15:20:09.898Z,101204.44
2022-07-29T15:22:36.105Z,101203.91
2022-07-29T15:25:02.273Z,101201.38
2022-07-29T15:27:28.497Z,101202.81
2022-07-29T15:29:54.699Z,101204.19
2022-07-29T15:32:20.902Z,101205.81
2022-07-29T15:34:47.178Z,101203.56
2022-07-29T15:37:13.476Z,101201.59
2022-07-29T15:39:39.766Z,101202.72
2022-07-29T15:42:05.941Z,101203.47
2022-07-29T15:44:32.168Z,101201.16
2022-07-29T15:46:58.626Z,101199.97
2022-07-29T15:49:25.234Z,101194.69
2022-07-29T15:51:51.435Z,101191.31
2022-07-29T15:54:17.631Z,101199.44
2022-07-29T15:56:43.861Z,101184.94
2022-07-29T15:59:10.191Z,101190.81
2022-07-29T16:01:48.701Z,101188.63
2022-07-29T16:04:14.921Z,101190.28
2022-07-29T16:06:41.222Z,101186.41
2022-07-29T16:09:07.380Z,101190.59
2022-07-29T16:11:33.593Z,101178.06
2022-07-29T16:13:59.779Z,101185.59
2022-07-29T16:16:26.030Z,101175.53
2022-07-29T16:18:52.309Z,101179.41
2022-07-29T16:21:18.524Z,101172.13
2022-07-29T16:23:44.725Z,101169.00
2022-07-29T16:26:10.917Z,101160.88
2022-07-29T16:28:37.152Z,101159.06
2022-07-29T16:31:03.339Z,101167.13
2022-07-29T16:33:55.423Z,101159.50
2022-07-29T16:36:15.716Z,101159.34
2022-07-29T16:38:47.191Z,101169.81
2022-07-29T16:41:13.828Z,101163.66
2022-07-29T16:43:40.022Z,101152.19
2022-07-29T16:46:06.323Z,101156.94
2022-07-29T16:48:32.576Z,101154.94
2022-07-29T16:50:58.807Z,101154.91
2022-07-29T16:53:29.683Z,101162.91
2022-07-29T16:55:56.257Z,101161.16
2022-07-29T16:58:22.502Z,101157.81
2022-07-29T17:00:48.714Z,101158.38
2022-07-29T17:03:14.933Z,101162.72
2022-07-29T17:05:50.447Z,101157.28
2022-07-29T17:08:20.416Z,101163.31
2022-07-29T17:10:46.583Z,101158.22
2022-07-29T17:13:12.809Z,101162.34
2022-07-29T17:15:39.012Z,101164.47
2022-07-29T17:18:12.921Z,101161.91
2022-07-29T17:20:39.323Z,101166.06
2022-07-29T17:23:05.494Z,101167.59
2022-07-29T17:25:31.731Z,101162.47
2022-07-29T17:28:00.950Z,101163.50
2022-07-29T17:30:27.529Z,101164.53
2022-07-29T17:32:53.745Z,101161.97
2022-07-29T17:35:20.036Z,101155.47
2022-07-29T17:37:46.233Z,101162.66
2022-07-29T17:40:12.451Z,101165.97
2022-07-29T17:42:38.656Z,101162.59
2022-07-29T17:45:04.921Z,101163.63
2022-07-29T17:47:31.110Z,101161.63
2022-07-29T17:49:57.348Z,101168.41
2022-07-29T17:52:23.590Z,101155.78
2022-07-29T17:54:49.786Z,101162.63
2022-07-29T17:57:15.994Z,101159.44
2022-07-29T17:59:42.158Z,101167.38
2022-07-29T18:02:08.422Z,101170.06
2022-07-29T18:04:34.685Z,101165.44
2022-07-29T18:07:01.407Z,101163.06
2022-07-29T18:09:27.793Z,101178.19
2022-07-29T18:11:53.973Z,101170.50
2022-07-29T18:14:20.202Z,101182.88
2022-07-29T18:16:46.513Z,101172.41
2022-07-29T18:19:12.852Z,101175.84
2022-07-29T18:21:44.341Z,101173.22
2022-07-29T18:24:18.261Z,101176.41
2022-07-29T18:26:44.504Z,101172.91
2022-07-29T18:29:10.680Z,101176.91
2022-07-29T18:31:37.118Z,101180.06
2022-07-29T18:34:03.325Z,101181.31
2022-07-29T18:36:29.528Z,101183.63
2022-07-29T18:38:55.816Z,101192.91
2022-07-29T18:41:22.059Z,101189.09
2022-07-29T18:43:48.260Z,101198.88
2022-07-29T18:46:14.588Z,101194.28
2022-07-29T18:48:40.890Z,101202.75
2022-07-29T18:51:09.205Z,101201.75
2022-07-29T18:53:36.597Z,101193.78
2022-07-29T18:56:03.248Z,101200.28
2022-07-29T18:58:29.515Z,101201.28
2022-07-29T19:00:55.721Z,101198.84
2022-07-29T19:03:21.990Z,101207.84
2022-07-29T19:05:48.262Z,101208.59
2022-07-29T19:08:14.471Z,101209.78
2022-07-29T19:10:40.725Z,101202.44
2022-07-29T19:13:06.914Z,101208.91
2022-07-29T19:15:33.118Z,101218.13
2022-07-29T19:18:01.318Z,101216.56
2022-07-29T19:20:27.649Z,101217.53
2022-07-29T19:22:53.869Z,101220.16
2022-07-29T19:25:20.059Z,101224.91
2022-07-29T19:27:46.269Z,101227.56
2022-07-29T19:30:12.495Z,101229.34
2022-07-29T19:32:38.749Z,101232.44
2022-07-29T19:35:05.048Z,101234.81
2022-07-29T19:37:31.278Z,101236.59
2022-07-29T19:39:57.852Z,101233.69
2022-07-29T19:42:24.141Z,101245.44
2022-07-29T19:44:50.350Z,101241.22
2022-07-29T19:47:17.412Z,101242.13
2022-07-29T19:49:43.760Z,101238.97
2022-07-29T19:52:10.020Z,101238.81
2022-07-29T19:54:36.270Z,101235.03
2022-07-29T19:57:02.512Z,101244.03
2022-07-29T19:59:30.269Z,101238.13
2022-07-29T20:01:56.563Z,101240.50
2022-07-29T20:04:22.803Z,101244.81
2022-07-29T20:06:49.100Z,101241.66
2022-07-29T20:09:20.289Z,101245.97
2022-07-29T20:11:46.713Z,101241.13
2022-07-29T20:14:12.949Z,101247.94
2022-07-29T20:16:39.388Z,101241.19
2022-07-29T20:19:05.958Z,101242.50
2022-07-29T20:21:32.159Z,101241.00
2022-07-29T20:23:58.349Z,101241.47
2022-07-29T20:26:24.556Z,101241.09
2022-07-29T20:28:50.753Z,101242.63
2022-07-29T20:31:17.085Z,101237.31
2022-07-29T20:33:43.415Z,101244.16
2022-07-29T20:36:09.645Z,101240.72
2022-07-29T20:38:35.852Z,101248.41
2022-07-29T20:41:02.067Z,101253.28
2022-07-29T20:43:28.299Z,101250.75
2022-07-29T20:45:54.528Z,101254.81
2022-07-29T20:48:20.761Z,101250.63
2022-07-29T20:50:46.975Z,101247.22
2022-07-29T20:53:13.195Z,101254.03
2022-07-29T20:55:39.420Z,101250.66
2022-07-29T20:58:05.619Z,101257.50
2022-07-29T21:00:31.922Z,101259.63
2022-07-29T21:02:58.292Z,101262.84
2022-07-29T21:05:24.541Z,101263.25
2022-07-29T21:07:53.339Z,101265.63
2022-07-29T21:10:21.620Z,101266.09
2022-07-29T21:12:47.931Z,101268.22
2022-07-29T21:15:14.135Z,101259.31
2022-07-29T21:17:40.328Z,101259.78
2022-07-29T21:20:06.644Z,101257.44
2022-07-29T21:22:32.857Z,101255.78
2022-07-29T21:24:59.157Z,101267.03
2022-07-29T21:27:25.534Z,101256.66
2022-07-29T21:29:51.942Z,101264.94
2022-07-29T21:32:29.737Z,101262.38
2022-07-29T21:34:56.451Z,101256.47
2022-07-29T21:37:22.639Z,101258.63
2022-07-29T21:39:48.987Z,101258.00
2022-07-29T21:42:15.229Z,101261.81
2022-07-29T21:44:41.406Z,101264.81
2022-07-29T21:47:07.611Z,101265.03
2022-07-29T21:49:33.889Z,101255.28
2022-07-29T21:52:00.314Z,101263.78
2022-07-29T21:54:27.989Z,101260.38
2022-07-29T21:56:54.303Z,101261.47
2022-07-29T21:59:20.666Z,101267.38
2022-07-29T22:01:46.942Z,101263.78
2022-07-29T22:04:13.251Z,101268.88
2022-07-29T22:06:39.512Z,101266.38
2022-07-29T22:09:05.690Z,101267.63
2022-07-29T22:11:31.934Z,101261.72
2022-07-29T22:13:58.097Z,101263.03
2022-07-29T22:16:24.405Z,101266.19
2022-07-29T22:18:50.646Z,101268.56
2022-07-29T22:21:16.864Z,101264.34
2022-07-29T22:23:43.082Z,101260.94
2022-07-29T22:26:09.313Z,101263.91
2022-07-29T22:28:35.515Z,101262.66
2022-07-29T22:31:01.731Z,101268.63
2022-07-29T22:33:28.002Z,101265.25
2022-07-29T22:35:54.248Z,101260.16
2022-07-29T22:38:20.479Z,101260.59
2022-07-29T22:40:46.682Z,101251.69
2022-07-29T22:43:14.854Z,101250.22
2022-07-29T22:45:41.122Z,101249.59
2022-07-29T22:48:07.361Z,101243.47
2022-07-29T22:50:33.591Z,101246.66
2022-07-29T22:52:59.796Z,101247.06
2022-07-29T22:55:26.031Z,101238.19
2022-07-29T22:57:52.237Z,101239.47
2022-07-29T23:00:18.456Z,101234.19
2022-07-29T23:02:44.652Z,101235.44
2022-07-29T23:05:14.086Z,101223.81
2022-07-29T23:07:40.298Z,101229.53
2022-07-29T23:10:06.478Z,101226.97
2022-07-29T23:12:32.699Z,101227.22
2022-07-29T23:14:58.930Z,101228.47
2022-07-29T23:17:25.139Z,101227.84
2022-07-29T23:19:51.386Z,101228.03
2022-07-29T23:22:18.476Z,101224.66
2022-07-29T23:24:44.867Z,101228.94
2022-07-29T23:27:11.087Z,101230.19
2022-07-29T23:29:37.286Z,101224.06
2022-07-29T23:32:03.510Z,101231.69
2022-07-29T23:34:29.748Z,101230.84
2022-07-29T23:36:55.971Z,101234.88
2022-07-29T23:39:22.169Z,101230.63
2022-07-29T23:41:48.809Z,101230.88
2022-07-29T23:44:15.083Z,101230.00
2022-07-29T23:46:42.778Z,101225.56
2022-07-29T23:49:09.094Z,101227.69
2022-07-29T23:51:35.295Z,101222.59
2022-07-29T23:54:01.498Z,101223.88
2022-07-29T23:56:27.719Z,101226.84
2022-07-29T23:58:53.921Z,101223.69
